createdAt,value
2019-03-09T00:02:26.374Z,100377.23
2019-03-09T00:03:30.975Z,100375.48
2019-03-09T00:04:35.227Z,100373.72
2019-03-09T00:05:39.802Z,100376.33
2019-03-09T00:06:44.111Z,100379.38
2019-03-09T00:07:48.391Z,100378.50
2019-03-09T00:08:52.675Z,100372.88
2019-03-09T00:09:56.946Z,100372.86
2019-03-09T00:11:01.195Z,100371.16
2019-03-09T00:12:08.371Z,100370.70
2019-03-09T00:13:15.279Z,100372.87
2019-03-09T00:14:19.535Z,100373.33
2019-03-09T00:15:26.484Z,100371.56
2019-03-09T00:16:30.780Z,100368.53
2019-03-09T00:17:35.045Z,100369.42
2019-03-09T00:18:39.590Z,100367.23
2019-03-09T00:19:45.061Z,100365.07
2019-03-09T00:20:52.585Z,100363.76
2019-03-09T00:21:57.421Z,100354.20
2019-03-09T00:23:06.026Z,100345.08
2019-03-09T00:24:18.242Z,100339.00
2019-03-09T00:25:24.337Z,100332.06
2019-03-09T00:26:33.314Z,100331.61
2019-03-09T00:27:39.399Z,100329.89
2019-03-09T00:29:03.437Z,100327.71
2019-03-09T00:30:13.970Z,100329.00
2019-03-09T00:31:22.642Z,100322.94
2019-03-09T00:32:26.904Z,100315.98
2019-03-09T00:33:31.160Z,100312.93
2019-03-09T00:34:38.482Z,100313.80
2019-03-09T00:35:42.768Z,100305.97
2019-03-09T00:36:47.188Z,100302.52
2019-03-09T00:37:51.530Z,100308.18
2019-03-09T00:38:55.866Z,100306.84
2019-03-09T00:40:00.316Z,100302.52
2019-03-09T00:41:04.598Z,100302.52
2019-03-09T00:42:08.844Z,100304.25
2019-03-09T00:43:16.355Z,100301.64
2019-03-09T00:44:23.769Z,100297.73
2019-03-09T00:45:31.010Z,100297.31
2019-03-09T00:46:35.417Z,100299.90
2019-03-09T00:47:39.688Z,100293.84
2019-03-09T00:48:43.946Z,100294.69
2019-03-09T00:49:50.890Z,100290.34
2019-03-09T00:50:55.457Z,100296.02
2019-03-09T00:52:00.182Z,100296.88
2019-03-09T00:53:04.447Z,100302.08
2019-03-09T00:54:08.696Z,100309.04
2019-03-09T00:55:13.220Z,100310.32
2019-03-09T00:56:17.499Z,100302.08
2019-03-09T00:57:21.760Z,100296.41
2019-03-09T00:58:28.950Z,100293.80
2019-03-09T00:59:36.221Z,100293.38
2019-03-09T01:00:40.478Z,100290.33
2019-03-09T01:01:44.767Z,100284.25
2019-03-09T01:02:51.943Z,100283.36
2019-03-09T01:03:57.166Z,100280.31
2019-03-09T01:05:01.747Z,100275.97
2019-03-09T01:06:06.011Z,100274.68
2019-03-09T01:07:10.295Z,100267.70
2019-03-09T01:08:14.538Z,100270.75
2019-03-09T01:09:18.804Z,100266.83
2019-03-09T01:10:23.051Z,100266.85
2019-03-09T01:11:27.343Z,100275.10
2019-03-09T01:12:31.598Z,100271.19
2019-03-09T01:13:36.865Z,100282.91
2019-03-09T01:14:41.150Z,100274.20
2019-03-09T01:15:48.397Z,100275.52
2019-03-09T01:16:53.056Z,100263.78
2019-03-09T01:17:57.295Z,100264.67
2019-03-09T01:19:01.543Z,100251.63
2019-03-09T01:20:11.266Z,100259.03
2019-03-09T01:21:18.474Z,100258.59
2019-03-09T01:22:22.748Z,100258.62
2019-03-09T01:23:29.962Z,100258.17
2019-03-09T01:24:34.218Z,100257.75
2019-03-09T01:25:41.246Z,100259.05
2019-03-09T01:26:45.704Z,100252.12
2019-03-09T01:27:50.309Z,100248.20
2019-03-09T01:28:54.570Z,100247.77
2019-03-09T01:29:58.836Z,100242.55
2019-03-09T01:31:03.091Z,100238.22
2019-03-09T01:32:08.522Z,100233.00
2019-03-09T01:33:12.754Z,100238.17
2019-03-09T01:34:20.083Z,100236.43
2019-03-09T01:35:24.336Z,100237.73
2019-03-09T01:36:28.622Z,100232.50
2019-03-09T01:37:32.891Z,100230.33
2019-03-09T01:38:38.114Z,100225.12
2019-03-09T01:39:42.385Z,100222.94
2019-03-09T01:40:46.620Z,100220.77
2019-03-09T01:41:53.765Z,100217.74
2019-03-09T01:43:00.941Z,100215.56
2019-03-09T01:44:05.243Z,100212.08
2019-03-09T01:45:16.073Z,100221.21
2019-03-09T01:46:20.336Z,100213.81
2019-03-09T01:47:27.360Z,100215.55
2019-03-09T01:48:31.612Z,100209.47
2019-03-09T01:49:35.859Z,100202.52
2019-03-09T01:50:40.147Z,100189.92
2019-03-09T01:51:44.423Z,100187.28
2019-03-09T01:52:48.693Z,100191.19
2019-03-09T01:53:52.969Z,100185.56
2019-03-09T01:54:59.887Z,100188.17
2019-03-09T01:56:04.468Z,100185.56
2019-03-09T01:57:09.726Z,100185.12
2019-03-09T01:58:16.723Z,100179.01
2019-03-09T01:59:21.517Z,100175.95
2019-03-09T02:00:28.504Z,100172.94
2019-03-09T02:01:32.784Z,100168.17
2019-03-09T02:02:39.985Z,100162.08
2019-03-09T02:03:44.254Z,100167.28
2019-03-09T02:04:48.518Z,100164.22
2019-03-09T02:05:52.769Z,100164.22
2019-03-09T02:06:57.050Z,100165.97
2019-03-09T02:08:01.688Z,100156.39
2019-03-09T02:09:07.577Z,100154.64
2019-03-09T02:10:14.168Z,100156.38
2019-03-09T02:11:18.801Z,100156.38
2019-03-09T02:12:23.090Z,100157.25
2019-03-09T02:13:30.440Z,100159.81
2019-03-09T02:14:34.686Z,100158.98
2019-03-09T02:15:40.022Z,100150.69
2019-03-09T02:16:44.591Z,100153.78
2019-03-09T02:17:50.312Z,100152.89
2019-03-09T02:18:54.559Z,100154.64
2019-03-09T02:19:58.816Z,100151.14
2019-03-09T02:21:03.229Z,100148.13
2019-03-09T02:22:07.510Z,100148.13
2019-03-09T02:23:11.758Z,100146.80
2019-03-09T02:24:16.173Z,100145.06
2019-03-09T02:25:20.417Z,100143.35
2019-03-09T02:26:27.397Z,100139.88
2019-03-09T02:27:31.687Z,100137.69
2019-03-09T02:28:35.939Z,100135.98
2019-03-09T02:29:42.941Z,100135.51
2019-03-09T02:30:47.189Z,100135.09
2019-03-09T02:31:54.366Z,100128.56
2019-03-09T02:32:58.683Z,100121.64
2019-03-09T02:34:02.940Z,100120.33
2019-03-09T02:35:11.578Z,100111.62
2019-03-09T02:36:16.244Z,100115.97
2019-03-09T02:37:23.463Z,100110.72
2019-03-09T02:38:29.360Z,100105.93
2019-03-09T02:39:53.269Z,100105.95
2019-03-09T02:40:57.823Z,100107.27
2019-03-09T02:42:02.098Z,100100.73
2019-03-09T02:43:06.370Z,100104.23
2019-03-09T02:44:10.956Z,100098.58
2019-03-09T02:45:22.877Z,100095.95
2019-03-09T02:46:27.133Z,100095.06
2019-03-09T02:47:34.377Z,100089.42
2019-03-09T02:48:41.643Z,100082.90
2019-03-09T02:49:48.593Z,100085.09
2019-03-09T02:50:58.246Z,100074.22
2019-03-09T02:52:02.514Z,100070.72
2019-03-09T02:53:06.783Z,100072.02
2019-03-09T02:54:11.060Z,100064.67
2019-03-09T02:55:18.431Z,100071.64
2019-03-09T02:56:22.677Z,100065.08
2019-03-09T02:57:29.959Z,100065.95
2019-03-09T02:58:34.270Z,100068.13
2019-03-09T02:59:38.634Z,100057.65
2019-03-09T03:00:44.507Z,100061.58
2019-03-09T03:01:52.838Z,100054.60
2019-03-09T03:03:01.446Z,100056.34
2019-03-09T03:04:05.716Z,100063.26
2019-03-09T03:05:09.968Z,100061.50
2019-03-09T03:06:14.293Z,100064.95
2019-03-09T03:07:18.557Z,100061.90
2019-03-09T03:08:22.906Z,100060.18
2019-03-09T03:09:27.184Z,100054.08
2019-03-09T03:10:31.753Z,100045.80
2019-03-09T03:11:39.059Z,100046.23
2019-03-09T03:12:43.305Z,100049.28
2019-03-09T03:13:47.617Z,100037.99
2019-03-09T03:14:52.178Z,100030.56
2019-03-09T03:15:57.318Z,100032.73
2019-03-09T03:17:01.894Z,100023.19
2019-03-09T03:18:06.229Z,100024.94
2019-03-09T03:19:10.526Z,100016.65
2019-03-09T03:20:14.789Z,100007.95
2019-03-09T03:21:19.402Z,100006.67
2019-03-09T03:22:23.725Z,100000.55
2019-03-09T03:23:28.975Z,100002.28
2019-03-09T03:24:33.251Z,99993.19
2019-03-09T03:25:40.457Z,99991.42
2019-03-09T03:26:47.801Z,100000.15
2019-03-09T03:27:54.743Z,99998.39
2019-03-09T03:28:59.051Z,100004.89
2019-03-09T03:30:03.417Z,100000.10
2019-03-09T03:31:07.747Z,99987.05
2019-03-09T03:32:11.993Z,99987.95
2019-03-09T03:33:17.227Z,99975.31
2019-03-09T03:34:21.524Z,99968.38
2019-03-09T03:35:25.803Z,99960.51
2019-03-09T03:36:32.735Z,99967.42
2019-03-09T03:37:37.024Z,99959.17
2019-03-09T03:38:41.315Z,99969.58
2019-03-09T03:39:48.333Z,99967.86
2019-03-09T03:40:52.647Z,99965.22
2019-03-09T03:41:57.239Z,99963.54
2019-03-09T03:43:01.496Z,99960.88
2019-03-09T03:44:05.750Z,99958.30
2019-03-09T03:45:11.646Z,99959.62
2019-03-09T03:46:15.925Z,99953.10
2019-03-09T03:47:23.084Z,99945.70
2019-03-09T03:48:27.364Z,99946.12
2019-03-09T03:49:31.615Z,99945.20
2019-03-09T03:50:38.868Z,99939.08
2019-03-09T03:51:44.157Z,99938.66
2019-03-09T03:52:49.426Z,99932.56
2019-03-09T03:53:53.697Z,99932.56
2019-03-09T03:54:57.980Z,99931.67
2019-03-09T03:56:02.276Z,99925.55
2019-03-09T03:57:06.511Z,99925.09
2019-03-09T03:58:10.770Z,99920.26
2019-03-09T03:59:17.799Z,99921.16
2019-03-09T04:00:22.065Z,99908.08
2019-03-09T04:01:26.327Z,99911.10
2019-03-09T04:02:30.601Z,99911.08
2019-03-09T04:03:35.235Z,99904.12
2019-03-09T04:04:39.531Z,99899.28
2019-03-09T04:05:43.768Z,99899.72
2019-03-09T04:06:48.013Z,99901.86
2019-03-09T04:07:52.292Z,99898.81
2019-03-09T04:08:56.588Z,99889.27
2019-03-09T04:10:00.837Z,99885.77
2019-03-09T04:11:09.416Z,99886.20
2019-03-09T04:12:16.611Z,99876.60
2019-03-09T04:13:24.032Z,99880.02
2019-03-09T04:14:28.336Z,99876.19
2019-03-09T04:15:33.049Z,99872.73
2019-03-09T04:16:40.099Z,99878.37
2019-03-09T04:17:44.357Z,99877.47
2019-03-09T04:18:48.640Z,99867.87
2019-03-09T04:19:53.270Z,99865.72
2019-03-09T04:20:57.517Z,99861.75
2019-03-09T04:22:02.734Z,99866.07
2019-03-09T04:23:07.357Z,99858.62
2019-03-09T04:24:11.609Z,99850.29
2019-03-09T04:25:15.873Z,99851.56
2019-03-09T04:26:20.126Z,99845.47
2019-03-09T04:27:24.377Z,99846.34
2019-03-09T04:28:28.670Z,99842.83
2019-03-09T04:29:35.885Z,99835.37
2019-03-09T04:30:42.849Z,99840.19
2019-03-09T04:31:47.096Z,99834.53
2019-03-09T04:32:51.374Z,99826.38
2019-03-09T04:33:55.931Z,99834.22
2019-03-09T04:35:00.395Z,99831.63
2019-03-09T04:36:04.727Z,99828.65
2019-03-09T04:37:12.000Z,99830.86
2019-03-09T04:38:16.246Z,99816.50
2019-03-09T04:39:20.527Z,99815.59
2019-03-09T04:40:24.786Z,99813.45
2019-03-09T04:41:29.059Z,99820.38
2019-03-09T04:42:33.405Z,99818.20
2019-03-09T04:43:40.932Z,99801.23
2019-03-09T04:44:45.207Z,99805.92
2019-03-09T04:45:49.519Z,99795.55
2019-03-09T04:46:53.824Z,99809.41
2019-03-09T04:47:58.076Z,99808.54
2019-03-09T04:49:05.415Z,99803.72
2019-03-09T04:50:11.444Z,99791.10
2019-03-09T04:51:18.370Z,99794.55
2019-03-09T04:52:25.692Z,99794.11
2019-03-09T04:53:32.861Z,99788.89
2019-03-09T04:54:39.799Z,99780.16
2019-03-09T04:55:46.963Z,99775.77
2019-03-09T04:56:51.219Z,99777.08
2019-03-09T04:57:57.449Z,99770.14
2019-03-09T04:59:01.419Z,99769.23
2019-03-09T05:00:08.356Z,99764.08
2019-03-09T05:01:12.698Z,99756.65
2019-03-09T05:02:19.788Z,99758.39
2019-03-09T05:03:26.706Z,99751.89
2019-03-09T05:04:42.166Z,99744.90
2019-03-09T05:05:46.743Z,99741.05
2019-03-09T05:06:53.659Z,99741.48
2019-03-09T05:08:04.313Z,99738.80
2019-03-09T05:09:30.854Z,99736.59
2019-03-09T05:10:44.342Z,99733.58
2019-03-09T05:11:51.277Z,99735.36
2019-03-09T05:12:59.229Z,99735.33
2019-03-09T05:14:06.499Z,99733.58
2019-03-09T05:15:13.540Z,99724.47
2019-03-09T05:16:17.795Z,99722.30
2019-03-09T05:17:22.060Z,99722.70
2019-03-09T05:18:26.321Z,99717.91
2019-03-09T05:19:30.745Z,99715.34
2019-03-09T05:20:37.986Z,99712.25
2019-03-09T05:21:42.229Z,99709.20
2019-03-09T05:22:49.457Z,99708.34
2019-03-09T05:23:53.699Z,99704.89
2019-03-09T05:24:58.000Z,99706.13
2019-03-09T05:26:02.292Z,99693.54
2019-03-09T05:27:06.544Z,99689.19
2019-03-09T05:28:10.795Z,99690.31
2019-03-09T05:29:15.072Z,99685.05
2019-03-09T05:30:41.093Z,99685.05
2019-03-09T05:31:48.376Z,99684.66
2019-03-09T05:32:52.691Z,99680.77
2019-03-09T05:33:56.958Z,99674.31
2019-03-09T05:35:01.245Z,99677.80
2019-03-09T05:36:08.826Z,99665.61
2019-03-09T05:37:13.123Z,99661.22
2019-03-09T05:38:20.017Z,99657.30
2019-03-09T05:39:26.664Z,99653.39
2019-03-09T05:40:30.941Z,99663.83
2019-03-09T05:41:38.269Z,99649.91
2019-03-09T05:42:42.543Z,99649.86
2019-03-09T05:43:50.448Z,99655.52
2019-03-09T05:44:54.695Z,99649.06
2019-03-09T05:45:58.967Z,99641.59
2019-03-09T05:47:07.522Z,99636.77
2019-03-09T05:48:11.776Z,99637.64
2019-03-09T05:49:16.034Z,99637.16
2019-03-09T05:50:20.305Z,99628.50
2019-03-09T05:51:24.583Z,99629.80
2019-03-09T05:52:29.308Z,99631.15
2019-03-09T05:53:33.579Z,99626.36
2019-03-09T05:54:40.902Z,99611.56
2019-03-09T05:55:45.176Z,99618.52
2019-03-09T05:56:49.435Z,99611.16
2019-03-09T05:57:56.619Z,99603.33
2019-03-09T05:59:01.312Z,99608.99
2019-03-09T06:00:11.968Z,99605.50
2019-03-09T06:01:16.453Z,99601.11
2019-03-09T06:02:20.701Z,99604.64
2019-03-09T06:03:24.961Z,99598.55
2019-03-09T06:04:29.543Z,99602.58
2019-03-09T06:05:47.348Z,99606.05
2019-03-09T06:06:54.637Z,99603.92
2019-03-09T06:07:59.231Z,99606.14
2019-03-09T06:09:04.237Z,99593.44
2019-03-09T06:10:10.102Z,99601.31
2019-03-09T06:11:14.368Z,99601.75
2019-03-09T06:12:18.630Z,99595.69
2019-03-09T06:13:22.914Z,99600.48
2019-03-09T06:14:27.155Z,99601.81
2019-03-09T06:15:34.081Z,99598.81
2019-03-09T06:16:38.358Z,99598.38
2019-03-09T06:17:45.316Z,99593.67
2019-03-09T06:18:49.574Z,99601.47
2019-03-09T06:19:54.128Z,99593.67
2019-03-09T06:20:58.669Z,99584.56
2019-03-09T06:22:03.278Z,99591.53
2019-03-09T06:23:08.504Z,99586.82
2019-03-09T06:24:12.780Z,99578.55
2019-03-09T06:25:18.002Z,99582.91
2019-03-09T06:26:22.284Z,99581.95
2019-03-09T06:27:26.532Z,99594.14
2019-03-09T06:28:30.784Z,99579.34
2019-03-09T06:29:35.076Z,99578.08
2019-03-09T06:30:39.300Z,99582.91
2019-03-09T06:32:03.113Z,99575.55
2019-03-09T06:33:30.058Z,99576.85
2019-03-09T06:34:34.334Z,99579.86
2019-03-09T06:35:38.606Z,99578.59
2019-03-09T06:36:52.166Z,99567.36
2019-03-09T06:38:19.363Z,99573.84
2019-03-09T06:39:23.604Z,99573.02
2019-03-09T06:40:28.209Z,99569.13
2019-03-09T06:41:38.690Z,99565.22
2019-03-09T06:42:47.796Z,99566.52
2019-03-09T06:43:52.042Z,99563.48
2019-03-09T06:45:00.022Z,99566.09
2019-03-09T06:46:04.319Z,99572.22
2019-03-09T06:47:08.614Z,99560.47
2019-03-09T06:48:12.905Z,99538.28
2019-03-09T06:49:17.188Z,99561.73
2019-03-09T06:50:21.518Z,99563.48
2019-03-09T06:51:25.772Z,99559.61
2019-03-09T06:52:30.445Z,99550.94
2019-03-09T06:53:36.183Z,99555.77
2019-03-09T06:54:43.680Z,99549.70
2019-03-09T06:55:49.418Z,99554.97
2019-03-09T06:56:54.052Z,99557.17
2019-03-09T06:57:58.463Z,99551.52
2019-03-09T06:59:08.945Z,99550.22
2019-03-09T07:00:22.200Z,99549.39
2019-03-09T07:01:26.595Z,99541.52
2019-03-09T07:02:33.550Z,99539.38
2019-03-09T07:03:37.843Z,99523.30
2019-03-09T07:04:42.308Z,99517.64
2019-03-09T07:05:46.564Z,99513.28
2019-03-09T07:06:53.621Z,99512.34
2019-03-09T07:07:59.527Z,99519.81
2019-03-09T07:09:06.684Z,99514.63
2019-03-09T07:10:11.632Z,99504.63
2019-03-09T07:11:15.892Z,99512.86
2019-03-09T07:12:23.113Z,99528.98
2019-03-09T07:13:27.845Z,99512.02
2019-03-09T07:14:54.596Z,99521.55
2019-03-09T07:16:01.542Z,99515.42
2019-03-09T07:17:05.826Z,99492.30
2019-03-09T07:18:13.227Z,99505.34
2019-03-09T07:19:17.471Z,99511.39
2019-03-09T07:20:21.718Z,99497.55
2019-03-09T07:21:26.353Z,99495.30
2019-03-09T07:22:30.619Z,99494.91
2019-03-09T07:23:35.180Z,99497.52
2019-03-09T07:24:39.437Z,99507.95
2019-03-09T07:25:43.683Z,99495.73
2019-03-09T07:26:47.981Z,99492.97
2019-03-09T07:28:00.370Z,99490.27
2019-03-09T07:29:07.682Z,99490.63
2019-03-09T07:30:17.299Z,99503.16
2019-03-09T07:31:21.546Z,99495.76
2019-03-09T07:32:25.892Z,99484.88
2019-03-09T07:33:30.123Z,99476.53
2019-03-09T07:34:37.335Z,99474.80
2019-03-09T07:35:41.587Z,99485.71
2019-03-09T07:36:45.854Z,99491.77
2019-03-09T07:37:50.131Z,99492.59
2019-03-09T07:38:54.382Z,99489.11
2019-03-09T07:39:58.645Z,99493.45
2019-03-09T07:41:05.900Z,99490.37
2019-03-09T07:42:10.181Z,99483.41
2019-03-09T07:43:14.786Z,99474.70
2019-03-09T07:44:19.219Z,99465.09
2019-03-09T07:45:23.747Z,99463.83
2019-03-09T07:46:33.915Z,99479.92
2019-03-09T07:47:38.337Z,99480.41
2019-03-09T07:48:42.641Z,99492.59
2019-03-09T07:49:47.218Z,99488.68
2019-03-09T07:50:51.766Z,99486.50
2019-03-09T07:51:56.021Z,99487.33
2019-03-09T07:53:00.672Z,99487.29
2019-03-09T07:54:04.937Z,99475.09
2019-03-09T07:55:15.442Z,99479.45
2019-03-09T07:56:19.694Z,99479.45
2019-03-09T07:57:24.050Z,99485.94
2019-03-09T07:58:28.311Z,99486.33
2019-03-09T07:59:32.565Z,99470.13
2019-03-09T08:00:36.827Z,99473.18
2019-03-09T08:01:44.230Z,99475.75
2019-03-09T08:02:48.472Z,99478.70
2019-03-09T08:03:52.750Z,99474.78
2019-03-09T08:04:57.175Z,99482.58
2019-03-09T08:06:01.772Z,99492.20
2019-03-09T08:07:06.116Z,99495.64
2019-03-09T08:08:10.371Z,99488.19
2019-03-09T08:09:17.491Z,99486.89
2019-03-09T08:10:24.474Z,99482.45
2019-03-09T08:11:28.764Z,99501.95
2019-03-09T08:12:33.017Z,99494.89
2019-03-09T08:13:37.707Z,99491.75
2019-03-09T08:14:42.173Z,99485.61
2019-03-09T08:15:46.775Z,99488.17
2019-03-09T08:16:53.872Z,99475.98
2019-03-09T08:17:58.328Z,99481.11
2019-03-09T08:19:03.149Z,99477.97
2019-03-09T08:20:12.569Z,99481.80
2019-03-09T08:21:16.820Z,99488.72
2019-03-09T08:22:23.761Z,99486.98
2019-03-09T08:23:28.030Z,99496.08
2019-03-09T08:24:33.038Z,99494.33
2019-03-09T08:25:37.292Z,99486.88
2019-03-09T08:26:41.865Z,99480.73
2019-03-09T08:27:48.785Z,99478.07
2019-03-09T08:28:54.015Z,99490.61
2019-03-09T08:29:58.571Z,99491.18
2019-03-09T08:31:02.856Z,99494.11
2019-03-09T08:32:10.014Z,99498.52
2019-03-09T08:33:17.237Z,99494.98
2019-03-09T08:34:21.854Z,99500.00
2019-03-09T08:35:26.081Z,99492.58
2019-03-09T08:36:35.009Z,99502.56
2019-03-09T08:37:38.951Z,99511.30
2019-03-09T08:38:48.818Z,99511.67
2019-03-09T08:39:56.078Z,99519.91
2019-03-09T08:41:00.436Z,99505.13
2019-03-09T08:42:04.692Z,99506.00
2019-03-09T08:43:08.946Z,99524.38
2019-03-09T08:44:13.217Z,99522.31
2019-03-09T08:45:18.790Z,99524.47
2019-03-09T08:46:25.969Z,99520.94
2019-03-09T08:47:30.274Z,99522.58
2019-03-09T08:48:34.493Z,99516.36
2019-03-09T08:49:38.752Z,99524.11
2019-03-09T08:50:43.795Z,99527.31
2019-03-09T08:51:50.781Z,99528.36
2019-03-09T08:52:55.025Z,99533.53
2019-03-09T08:53:59.314Z,99512.39
2019-03-09T08:55:04.146Z,99530.16
2019-03-09T08:56:08.368Z,99516.14
2019-03-09T08:57:15.400Z,99511.73
2019-03-09T08:58:19.669Z,99522.27
2019-03-09T08:59:23.909Z,99515.91
2019-03-09T09:00:30.939Z,99512.16
2019-03-09T09:01:35.221Z,99523.53
2019-03-09T09:02:39.785Z,99524.80
2019-03-09T09:03:44.118Z,99520.03
2019-03-09T09:04:48.391Z,99529.53
2019-03-09T09:05:52.645Z,99523.79
2019-03-09T09:06:56.903Z,99522.34
2019-03-09T09:08:03.594Z,99537.46
2019-03-09T09:09:10.493Z,99527.30
2019-03-09T09:10:14.888Z,99540.77
2019-03-09T09:11:19.142Z,99537.77
2019-03-09T09:12:23.395Z,99534.28
2019-03-09T09:13:27.639Z,99539.89
2019-03-09T09:14:32.245Z,99535.91
2019-03-09T09:15:36.493Z,99527.64
2019-03-09T09:16:40.898Z,99530.08
2019-03-09T09:17:45.143Z,99526.02
2019-03-09T09:18:50.413Z,99517.88
2019-03-09T09:19:54.639Z,99523.10
2019-03-09T09:20:59.218Z,99513.36
2019-03-09T09:22:03.781Z,99519.66
2019-03-09T09:23:08.046Z,99530.30
2019-03-09T09:24:12.316Z,99526.30
2019-03-09T09:25:16.564Z,99524.74
2019-03-09T09:26:24.452Z,99530.08
2019-03-09T09:27:28.692Z,99531.61
2019-03-09T09:28:35.743Z,99532.27
2019-03-09T09:29:40.188Z,99532.57
2019-03-09T09:30:44.448Z,99544.99
2019-03-09T09:31:48.692Z,99545.80
2019-03-09T09:32:52.954Z,99542.58
2019-03-09T09:33:58.457Z,99547.25
2019-03-09T09:35:05.827Z,99548.77
2019-03-09T09:36:13.021Z,99545.95
2019-03-09T09:37:17.587Z,99545.48
2019-03-09T09:38:21.840Z,99554.23
2019-03-09T09:39:26.421Z,99548.91
2019-03-09T09:40:31.031Z,99542.86
2019-03-09T09:41:35.251Z,99550.52
2019-03-09T09:42:39.532Z,99541.83
2019-03-09T09:43:46.809Z,99547.45
2019-03-09T09:44:51.073Z,99556.61
2019-03-09T09:45:55.372Z,99551.55
2019-03-09T09:46:59.657Z,99558.33
2019-03-09T09:48:03.926Z,99576.80
2019-03-09T09:49:11.064Z,99555.95
2019-03-09T09:50:16.687Z,99558.06
2019-03-09T09:51:24.044Z,99554.84
2019-03-09T09:52:28.347Z,99559.07
2019-03-09T09:53:32.620Z,99545.34
2019-03-09T09:54:36.890Z,99556.77
2019-03-09T09:55:44.123Z,99565.38
2019-03-09T09:56:49.366Z,99562.94
2019-03-09T09:57:53.631Z,99568.58
2019-03-09T09:58:57.888Z,99570.05
2019-03-09T10:00:03.068Z,99574.77
2019-03-09T10:01:07.336Z,99562.44
2019-03-09T10:02:14.680Z,99580.11
2019-03-09T10:03:19.232Z,99553.13
2019-03-09T10:04:23.487Z,99576.73
2019-03-09T10:05:28.114Z,99570.90
2019-03-09T10:06:32.358Z,99552.07
2019-03-09T10:07:36.946Z,99553.73
2019-03-09T10:08:43.933Z,99551.11
2019-03-09T10:09:48.273Z,99569.17
2019-03-09T10:10:52.533Z,99556.00
2019-03-09T10:11:56.885Z,99562.84
2019-03-09T10:13:03.972Z,99565.70
2019-03-09T10:14:08.233Z,99560.56
2019-03-09T10:15:20.680Z,99560.41
2019-03-09T10:16:24.928Z,99557.26
2019-03-09T10:17:29.208Z,99568.13
2019-03-09T10:18:33.472Z,99564.70
2019-03-09T10:19:37.700Z,99578.75
2019-03-09T10:20:44.915Z,99581.86
2019-03-09T10:21:48.865Z,99589.84
2019-03-09T10:23:03.548Z,99582.73
2019-03-09T10:24:00.192Z,99575.25
2019-03-09T10:25:06.012Z,99582.41
2019-03-09T10:26:12.931Z,99592.00
2019-03-09T10:27:17.185Z,99561.59
2019-03-09T10:28:24.389Z,99561.59
2019-03-09T10:29:28.730Z,99621.73
2019-03-09T10:30:37.055Z,99621.73
2019-03-09T10:31:41.596Z,99610.19
2019-03-09T10:32:46.140Z,99599.88
2019-03-09T10:33:50.377Z,99607.22
2019-03-09T10:34:54.641Z,99613.83
2019-03-09T10:35:59.240Z,99613.22
2019-03-09T10:37:06.444Z,99591.38
2019-03-09T10:38:10.684Z,99614.22
2019-03-09T10:39:14.931Z,99596.95
2019-03-09T10:40:19.234Z,99616.47
2019-03-09T10:41:23.494Z,99634.06
2019-03-09T10:42:27.774Z,99617.91
2019-03-09T10:43:35.273Z,99616.89
2019-03-09T10:44:39.550Z,99652.73
2019-03-09T10:45:43.826Z,99637.49
2019-03-09T10:46:48.433Z,99611.43
2019-03-09T10:47:53.713Z,99637.32
2019-03-09T10:48:57.975Z,99642.87
2019-03-09T10:50:02.225Z,99639.98
2019-03-09T10:51:07.495Z,99638.27
2019-03-09T10:52:14.669Z,99627.77
2019-03-09T10:53:21.781Z,99628.72
2019-03-09T10:54:35.573Z,99627.26
2019-03-09T10:55:34.289Z,99632.35
2019-03-09T10:56:38.543Z,99629.16
2019-03-09T10:57:42.814Z,99633.05
2019-03-09T10:58:47.075Z,99625.25
2019-03-09T10:59:51.324Z,99640.43
2019-03-09T11:00:55.602Z,99638.95
2019-03-09T11:02:02.872Z,99636.78
2019-03-09T11:03:09.831Z,99619.42
2019-03-09T11:04:14.463Z,99636.55
2019-03-09T11:05:18.710Z,99620.80
2019-03-09T11:06:22.996Z,99628.39
2019-03-09T11:07:32.614Z,99631.58
2019-03-09T11:08:36.876Z,99643.03
2019-03-09T11:09:41.144Z,99641.56
2019-03-09T11:10:45.650Z,99655.09
2019-03-09T11:11:50.344Z,99636.97
2019-03-09T11:12:54.617Z,99646.69
2019-03-09T11:13:58.854Z,99647.23
2019-03-09T11:15:03.198Z,99644.02
2019-03-09T11:16:07.496Z,99639.47
2019-03-09T11:17:14.464Z,99627.61
2019-03-09T11:18:19.037Z,99637.77
2019-03-09T11:19:26.195Z,99625.78
2019-03-09T11:20:30.783Z,99625.32
2019-03-09T11:21:35.461Z,99624.74
2019-03-09T11:22:39.984Z,99624.74
2019-03-09T11:23:44.304Z,99625.98
2019-03-09T11:24:48.667Z,99635.70
2019-03-09T11:25:53.141Z,99641.44
2019-03-09T11:27:00.380Z,99630.63
2019-03-09T11:28:09.483Z,99637.20
2019-03-09T11:29:13.752Z,99650.64
2019-03-09T11:30:28.020Z,99627.49
2019-03-09T11:31:32.318Z,99633.06
2019-03-09T11:32:37.421Z,99618.59
2019-03-09T11:33:41.661Z,99635.14
2019-03-09T11:34:45.928Z,99627.84
2019-03-09T11:35:50.482Z,99627.84
2019-03-09T11:36:55.059Z,99637.92
2019-03-09T11:37:59.360Z,99646.11
2019-03-09T11:39:05.000Z,99636.40
2019-03-09T11:40:09.540Z,99637.92
2019-03-09T11:41:19.266Z,99635.34
2019-03-09T11:42:22.593Z,99629.81
2019-03-09T11:43:26.841Z,99631.78
2019-03-09T11:44:31.181Z,99633.13
2019-03-09T11:45:35.464Z,99633.13
2019-03-09T11:46:39.771Z,99619.97
2019-03-09T11:47:44.238Z,99628.41
2019-03-09T11:48:48.841Z,99618.68
2019-03-09T11:49:53.100Z,99634.69
2019-03-09T11:50:57.360Z,99631.58
2019-03-09T11:52:01.639Z,99636.13
2019-03-09T11:53:05.925Z,99599.89
2019-03-09T11:54:10.183Z,99599.89
2019-03-09T11:55:15.419Z,99631.06
2019-03-09T11:56:20.027Z,99642.80
2019-03-09T11:57:24.287Z,99635.64
2019-03-09T11:58:28.650Z,99643.52
2019-03-09T11:59:32.911Z,99647.98
2019-03-09T12:00:41.231Z,99643.61
2019-03-09T12:01:45.865Z,99631.02
2019-03-09T12:02:53.152Z,99626.83
2019-03-09T12:03:57.713Z,99626.09
2019-03-09T12:05:02.005Z,99637.06
2019-03-09T12:06:06.265Z,99645.16
2019-03-09T12:07:13.248Z,99634.08
2019-03-09T12:08:17.499Z,99637.77
2019-03-09T12:09:24.810Z,99627.08
2019-03-09T12:10:29.169Z,99629.02
2019-03-09T12:11:33.447Z,99627.94
2019-03-09T12:12:38.022Z,99616.08
2019-03-09T12:13:42.286Z,99622.65
2019-03-09T12:14:46.599Z,99625.09
2019-03-09T12:15:50.871Z,99625.47
2019-03-09T12:16:55.183Z,99636.66
2019-03-09T12:17:59.439Z,99609.28
2019-03-09T12:19:03.685Z,99617.34
2019-03-09T12:20:11.973Z,99617.34
2019-03-09T12:21:17.141Z,99608.28
2019-03-09T12:22:21.549Z,99610.19
2019-03-09T12:23:28.841Z,99609.91
2019-03-09T12:24:33.220Z,99575.53
2019-03-09T12:25:37.716Z,99575.53
2019-03-09T12:26:42.003Z,99620.23
2019-03-09T12:27:46.464Z,99602.83
2019-03-09T12:28:51.014Z,99572.28
2019-03-09T12:29:58.189Z,99586.52
2019-03-09T12:31:02.801Z,99582.23
2019-03-09T12:32:07.122Z,99582.23
2019-03-09T12:33:11.798Z,99587.80
2019-03-09T12:34:18.809Z,99590.56
2019-03-09T12:35:23.086Z,99588.06
2019-03-09T12:36:27.344Z,99609.18
2019-03-09T12:37:31.801Z,99585.78
2019-03-09T12:38:36.349Z,99609.31
2019-03-09T12:39:40.956Z,99610.65
2019-03-09T12:40:45.152Z,99622.84
2019-03-09T12:41:49.762Z,99615.92
2019-03-09T12:42:54.375Z,99607.30
2019-03-09T12:44:01.810Z,99614.81
2019-03-09T12:45:08.518Z,99640.97